Bookmark and Share
Track history (hours):
 

Oriental Freesia

Last reported at 2014-Apr-17 23:29 UTC. Time now 2014-Apr-18 00:14 UTC.
Position N 31°21' E 032°22'.

Length 134 m; draft 9 m.

Type: Ship (hazmat cat A). MMSI: 319349000.

NotesDate/timePositionNaut miles runAvg speedWind from/ knotsBaromVisibWave heightAir tempDewpointWater temp
2014-Apr-17 23:29N 31°21' E 032°22'  
2014-Apr-13 21:21N 36°57' E 012°12'1012.1
2014-Apr-13 20:32N 37°01' E 012°00'1212.1
2014-Apr-13 19:33N 37°06' E 011°47'1412.1
2014-Apr-13 18:23N 37°13' E 011°32'1012.4
2014-Apr-13 17:33N 37°18' E 011°20'1212.5
2014-Apr-13 16:33N 37°24' E 011°07'1412.4
2014-Apr-13 15:27N 37°27' E 010°50'16711.8
2014-Apr-13 01:20N 37°44' E 007°20'1010.2
2014-Apr-13 00:20N 37°44' E 007°07'3210.6
2014-Apr-12 21:19N 37°44' E 006°27'910.5
2014-Apr-12 20:28N 37°44' E 006°16'3210.8
2014-Apr-12 17:31N 37°44' E 005°36'5410.8
2014-Apr-12 12:32N 37°38' E 004°28'1211.4
2014-Apr-12 11:27N 37°35' E 004°12'1111.9
2014-Apr-12 10:32N 37°32' E 003°59'1211.5
2014-Apr-12 09:31N 37°30' E 003°45'7111.7
2014-Apr-12 03:23N 37°13' E 002°17'1011.5
2014-Apr-12 02:32N 37°11' E 002°05'58951333.5
2014-Apr-11 22:07N 22°22' E 113°59'6107526.9
2014-Apr-11 10:31N 36°27' W 001°44'17611.8
2014-Apr-10 19:33N 35°59' W 005°19'1312.9
2014-Apr-10 18:33N 35°56' W 005°35'19911.0
2014-Apr-10 00:33N 36°42' W 009°35'4511.4
2014-Apr-09 20:33N 37°26' W 009°50'1211.9
2014-Apr-09 19:31N 37°38' W 009°53'1111.5
2014-Apr-09 18:33N 37°49' W 009°56'1111.4
2014-Apr-09 17:33N 38°00' W 009°59'1211.5
2014-Apr-09 16:28N 38°12' W 010°03'  

Dump ship's entire track history

sailing weather and tide predictions

Oriental Freesia — ZGCD7 — position and weather